sensor_id;sensor_type;location;lat;lon;timestamp;P1;durP1;ratioP1;P2;durP2;ratioP2
71856;SDS011;63344;46.980;28.882;2024-02-21T00:00:35;17.63;;;8.15;;
71856;SDS011;63344;46.980;28.882;2024-02-21T00:03:48;14.88;;;7.45;;
71856;SDS011;63344;46.980;28.882;2024-02-21T00:06:28;23.42;;;9.25;;
71856;SDS011;63344;46.980;28.882;2024-02-21T00:09:22;14.80;;;7.50;;
71856;SDS011;63344;46.980;28.882;2024-02-21T00:12:08;18.80;;;8.02;;
71856;SDS011;63344;46.980;28.882;2024-02-21T00:17:47;19.63;;;9.15;;
71856;SDS011;63344;46.980;28.882;2024-02-21T00:23:58;15.07;;;7.00;;
71856;SDS011;63344;46.980;28.882;2024-02-21T00:26:55;19.98;;;10.43;;
71856;SDS011;63344;46.980;28.882;2024-02-21T00:29:47;21.70;;;9.20;;
71856;SDS011;63344;46.980;28.882;2024-02-21T00:36:07;13.10;;;5.63;;
71856;SDS011;63344;46.980;28.882;2024-02-21T00:38:58;15.30;;;6.90;;
71856;SDS011;63344;46.980;28.882;2024-02-21T00:41:32;17.73;;;6.55;;
71856;SDS011;63344;46.980;28.882;2024-02-21T00:44:30;15.45;;;8.25;;
71856;SDS011;63344;46.980;28.882;2024-02-21T00:47:35;15.80;;;6.63;;
71856;SDS011;63344;46.980;28.882;2024-02-21T00:50:13;19.50;;;8.70;;
71856;SDS011;63344;46.980;28.882;2024-02-21T00:53:13;24.42;;;9.80;;
71856;SDS011;63344;46.980;28.882;2024-02-21T00:55:46;20.98;;;9.23;;
71856;SDS011;63344;46.980;28.882;2024-02-21T01:01:48;16.85;;;7.75;;
71856;SDS011;63344;46.980;28.882;2024-02-21T01:04:44;15.63;;;7.65;;
71856;SDS011;63344;46.980;28.882;2024-02-21T01:07:22;14.23;;;6.63;;
71856;SDS011;63344;46.980;28.882;2024-02-21T01:10:12;16.95;;;9.02;;
71856;SDS011;63344;46.980;28.882;2024-02-21T01:13:18;15.73;;;7.32;;
71856;SDS011;63344;46.980;28.882;2024-02-21T01:16:00;13.07;;;5.88;;
71856;SDS011;63344;46.980;28.882;2024-02-21T01:18:43;16.55;;;7.72;;
71856;SDS011;63344;46.980;28.882;2024-02-21T01:21:44;15.23;;;6.18;;
71856;SDS011;63344;46.980;28.882;2024-02-21T01:24:31;12.93;;;6.78;;
71856;SDS011;63344;46.980;28.882;2024-02-21T01:27:12;13.25;;;7.05;;
71856;SDS011;63344;46.980;28.882;2024-02-21T01:29:48;12.65;;;6.35;;
71856;SDS011;63344;46.980;28.882;2024-02-21T01:32:46;14.10;;;5.50;;
71856;SDS011;63344;46.980;28.882;2024-02-21T01:35:21;15.38;;;6.68;;
71856;SDS011;63344;46.980;28.882;2024-02-21T01:38:10;11.93;;;5.03;;
71856;SDS011;63344;46.980;28.882;2024-02-21T01:40:50;11.68;;;5.63;;
71856;SDS011;63344;46.980;28.882;2024-02-21T01:46:49;15.00;;;7.45;;
71856;SDS011;63344;46.980;28.882;2024-02-21T01:49:35;14.15;;;6.13;;
71856;SDS011;63344;46.980;28.882;2024-02-21T01:52:14;15.00;;;7.53;;
71856;SDS011;63344;46.980;28.882;2024-02-21T01:55:10;15.13;;;6.72;;
71856;SDS011;63344;46.980;28.882;2024-02-21T01:58:00;14.55;;;6.68;;
71856;SDS011;63344;46.980;28.882;2024-02-21T02:00:57;14.20;;;6.30;;
71856;SDS011;63344;46.980;28.882;2024-02-21T02:07:05;12.93;;;6.75;;
71856;SDS011;63344;46.980;28.882;2024-02-21T02:09:46;12.38;;;5.05;;
71856;SDS011;63344;46.980;28.882;2024-02-21T02:12:52;15.32;;;7.05;;
71856;SDS011;63344;46.980;28.882;2024-02-21T02:15:47;18.25;;;7.65;;
71856;SDS011;63344;46.980;28.882;2024-02-21T02:22:09;11.38;;;5.75;;
71856;SDS011;63344;46.980;28.882;2024-02-21T02:25:11;12.95;;;6.88;;
71856;SDS011;63344;46.980;28.882;2024-02-21T02:28:28;16.40;;;8.32;;
71856;SDS011;63344;46.980;28.882;2024-02-21T02:31:01;24.13;;;9.43;;
71856;SDS011;63344;46.980;28.882;2024-02-21T02:34:03;19.35;;;9.00;;
71856;SDS011;63344;46.980;28.882;2024-02-21T02:36:59;19.95;;;8.05;;
71856;SDS011;63344;46.980;28.882;2024-02-21T02:39:53;19.38;;;7.65;;
71856;SDS011;63344;46.980;28.882;2024-02-21T02:43:08;19.05;;;7.70;;
71856;SDS011;63344;46.980;28.882;2024-02-21T02:45:45;22.70;;;8.77;;
71856;SDS011;63344;46.980;28.882;2024-02-21T02:48:44;15.95;;;6.93;;
71856;SDS011;63344;46.980;28.882;2024-02-21T02:51:26;19.90;;;8.88;;
71856;SDS011;63344;46.980;28.882;2024-02-21T02:56:38;17.38;;;8.02;;
71856;SDS011;63344;46.980;28.882;2024-02-21T02:59:21;15.15;;;8.20;;
71856;SDS011;63344;46.980;28.882;2024-02-21T03:02:01;22.90;;;10.13;;
71856;SDS011;63344;46.980;28.882;2024-02-21T03:04:44;19.50;;;8.10;;
71856;SDS011;63344;46.980;28.882;2024-02-21T03:07:31;24.38;;;9.20;;
71856;SDS011;63344;46.980;28.882;2024-02-21T03:10:47;18.13;;;7.88;;
71856;SDS011;63344;46.980;28.882;2024-02-21T03:13:36;18.75;;;9.70;;
71856;SDS011;63344;46.980;28.882;2024-02-21T03:16:36;19.70;;;8.57;;
71856;SDS011;63344;46.980;28.882;2024-02-21T03:19:21;19.58;;;8.68;;
71856;SDS011;63344;46.980;28.882;2024-02-21T03:22:24;17.88;;;9.25;;
71856;SDS011;63344;46.980;28.882;2024-02-21T03:25:23;17.38;;;7.90;;
71856;SDS011;63344;46.980;28.882;2024-02-21T03:31:34;25.75;;;7.97;;
71856;SDS011;63344;46.980;28.882;2024-02-21T03:34:22;20.92;;;7.85;;
71856;SDS011;63344;46.980;28.882;2024-02-21T03:37:09;16.90;;;6.75;;
71856;SDS011;63344;46.980;28.882;2024-02-21T03:39:54;17.88;;;8.23;;
71856;SDS011;63344;46.980;28.882;2024-02-21T03:42:30;16.67;;;7.45;;
71856;SDS011;63344;46.980;28.882;2024-02-21T03:45:34;15.32;;;7.68;;
71856;SDS011;63344;46.980;28.882;2024-02-21T03:48:06;21.38;;;8.95;;
71856;SDS011;63344;46.980;28.882;2024-02-21T03:50:52;13.63;;;6.57;;
71856;SDS011;63344;46.980;28.882;2024-02-21T03:53:31;18.88;;;7.15;;
71856;SDS011;63344;46.980;28.882;2024-02-21T03:56:27;18.05;;;8.13;;
71856;SDS011;63344;46.980;28.882;2024-02-21T03:59:20;17.58;;;10.73;;
71856;SDS011;63344;46.980;28.882;2024-02-21T04:01:54;18.83;;;9.93;;
71856;SDS011;63344;46.980;28.882;2024-02-21T04:04:51;19.15;;;9.55;;
71856;SDS011;63344;46.980;28.882;2024-02-21T04:07:34;17.48;;;8.85;;
71856;SDS011;63344;46.980;28.882;2024-02-21T04:10:09;19.98;;;9.07;;
71856;SDS011;63344;46.980;28.882;2024-02-21T04:13:03;17.83;;;8.45;;
71856;SDS011;63344;46.980;28.882;2024-02-21T04:15:37;20.50;;;9.48;;
71856;SDS011;63344;46.980;28.882;2024-02-21T04:18:31;18.92;;;9.82;;
71856;SDS011;63344;46.980;28.882;2024-02-21T04:21:14;18.38;;;7.82;;
71856;SDS011;63344;46.980;28.882;2024-02-21T04:30:42;17.33;;;8.52;;
71856;SDS011;63344;46.980;28.882;2024-02-21T04:33:32;18.48;;;7.22;;
71856;SDS011;63344;46.980;28.882;2024-02-21T04:36:08;24.65;;;8.40;;
71856;SDS011;63344;46.980;28.882;2024-02-21T04:39:22;18.63;;;8.80;;
71856;SDS011;63344;46.980;28.882;2024-02-21T04:42:17;22.92;;;10.57;;
71856;SDS011;63344;46.980;28.882;2024-02-21T04:45:35;22.42;;;9.02;;
71856;SDS011;63344;46.980;28.882;2024-02-21T04:48:27;25.13;;;10.10;;
71856;SDS011;63344;46.980;28.882;2024-02-21T04:51:18;19.92;;;8.55;;
71856;SDS011;63344;46.980;28.882;2024-02-21T04:54:16;19.23;;;7.43;;
71856;SDS011;63344;46.980;28.882;2024-02-21T04:57:13;16.55;;;7.97;;
71856;SDS011;63344;46.980;28.882;2024-02-21T04:59:57;18.35;;;7.90;;
71856;SDS011;63344;46.980;28.882;2024-02-21T05:02:46;13.15;;;6.35;;
71856;SDS011;63344;46.980;28.882;2024-02-21T05:24:07;26.30;;;10.88;;
71856;SDS011;63344;46.980;28.882;2024-02-21T05:53:59;20.65;;;8.95;;
71856;SDS011;63344;46.980;28.882;2024-02-21T05:57:44;20.65;;;9.07;;
71856;SDS011;63344;46.980;28.882;2024-02-21T06:28:13;19.98;;;10.02;;
71856;SDS011;63344;46.980;28.882;2024-02-21T06:36:11;15.23;;;7.40;;
71856;SDS011;63344;46.980;28.882;2024-02-21T06:44:19;22.08;;;9.95;;
71856;SDS011;63344;46.980;28.882;2024-02-21T08:10:28;16.67;;;9.30;;
71856;SDS011;63344;46.980;28.882;2024-02-21T08:12:55;15.43;;;8.13;;
71856;SDS011;63344;46.980;28.882;2024-02-21T08:15:23;21.88;;;9.27;;
71856;SDS011;63344;46.980;28.882;2024-02-21T08:17:55;21.05;;;9.50;;
71856;SDS011;63344;46.980;28.882;2024-02-21T08:20:32;22.30;;;9.27;;
71856;SDS011;63344;46.980;28.882;2024-02-21T08:22:59;19.60;;;9.52;;
71856;SDS011;63344;46.980;28.882;2024-02-21T08:25:27;16.90;;;9.13;;
71856;SDS011;63344;46.980;28.882;2024-02-21T08:27:56;21.10;;;8.57;;
71856;SDS011;63344;46.980;28.882;2024-02-21T08:30:27;20.15;;;9.20;;
71856;SDS011;63344;46.980;28.882;2024-02-21T08:32:54;18.00;;;8.50;;
71856;SDS011;63344;46.980;28.882;2024-02-21T08:35:36;16.45;;;9.55;;
71856;SDS011;63344;46.980;28.882;2024-02-21T08:38:04;15.77;;;8.98;;
71856;SDS011;63344;46.980;28.882;2024-02-21T08:40:31;19.85;;;9.40;;
71856;SDS011;63344;46.980;28.882;2024-02-21T08:43:02;15.77;;;8.20;;
71856;SDS011;63344;46.980;28.882;2024-02-21T08:45:30;21.00;;;9.45;;
71856;SDS011;63344;46.980;28.882;2024-02-21T08:48:03;16.25;;;9.38;;
71856;SDS011;63344;46.980;28.882;2024-02-21T08:50:31;19.83;;;9.32;;
71856;SDS011;63344;46.980;28.882;2024-02-21T08:53:00;16.58;;;9.23;;
71856;SDS011;63344;46.980;28.882;2024-02-21T08:55:27;18.25;;;8.18;;
71856;SDS011;63344;46.980;28.882;2024-02-21T08:57:55;15.93;;;8.55;;
71856;SDS011;63344;46.980;28.882;2024-02-21T09:00:22;16.67;;;8.50;;
71856;SDS011;63344;46.980;28.882;2024-02-21T09:02:54;16.33;;;9.35;;
71856;SDS011;63344;46.980;28.882;2024-02-21T09:07:52;15.23;;;8.48;;
71856;SDS011;63344;46.980;28.882;2024-02-21T09:10:20;15.43;;;8.73;;
71856;SDS011;63344;46.980;28.882;2024-02-21T09:12:48;19.67;;;8.18;;
71856;SDS011;63344;46.980;28.882;2024-02-21T09:15:15;15.48;;;8.90;;
71856;SDS011;63344;46.980;28.882;2024-02-21T09:17:43;20.83;;;8.43;;
71856;SDS011;63344;46.980;28.882;2024-02-21T09:20:10;16.90;;;9.20;;
71856;SDS011;63344;46.980;28.882;2024-02-21T09:22:39;16.33;;;10.32;;
71856;SDS011;63344;46.980;28.882;2024-02-21T09:25:07;15.73;;;8.68;;
71856;SDS011;63344;46.980;28.882;2024-02-21T09:27:34;15.38;;;9.27;;
71856;SDS011;63344;46.980;28.882;2024-02-21T09:30:02;17.13;;;9.43;;
71856;SDS011;63344;46.980;28.882;2024-02-21T09:32:31;15.48;;;8.40;;
71856;SDS011;63344;46.980;28.882;2024-02-21T09:35:00;12.43;;;8.05;;
71856;SDS011;63344;46.980;28.882;2024-02-21T09:39:56;14.95;;;10.00;;
71856;SDS011;63344;46.980;28.882;2024-02-21T09:42:24;15.35;;;9.38;;
71856;SDS011;63344;46.980;28.882;2024-02-21T09:45:07;14.60;;;8.10;;
71856;SDS011;63344;46.980;28.882;2024-02-21T09:50:51;15.48;;;8.98;;
71856;SDS011;63344;46.980;28.882;2024-02-21T09:53:23;15.88;;;10.10;;
71856;SDS011;63344;46.980;28.882;2024-02-21T09:55:52;17.15;;;9.75;;
71856;SDS011;63344;46.980;28.882;2024-02-21T09:58:19;15.98;;;9.77;;
71856;SDS011;63344;46.980;28.882;2024-02-21T10:00:49;14.68;;;9.75;;
71856;SDS011;63344;46.980;28.882;2024-02-21T10:03:18;14.93;;;9.55;;
71856;SDS011;63344;46.980;28.882;2024-02-21T10:05:47;19.75;;;10.75;;
71856;SDS011;63344;46.980;28.882;2024-02-21T10:08:18;15.50;;;10.13;;
71856;SDS011;63344;46.980;28.882;2024-02-21T10:10:47;17.40;;;11.02;;
71856;SDS011;63344;46.980;28.882;2024-02-21T10:13:24;21.52;;;11.30;;
71856;SDS011;63344;46.980;28.882;2024-02-21T10:16:06;16.70;;;10.45;;
71856;SDS011;63344;46.980;28.882;2024-02-21T10:18:35;16.48;;;10.13;;
71856;SDS011;63344;46.980;28.882;2024-02-21T10:21:03;18.35;;;9.77;;
71856;SDS011;63344;46.980;28.882;2024-02-21T10:23:41;20.38;;;11.13;;
71856;SDS011;63344;46.980;28.882;2024-02-21T10:26:13;16.42;;;9.48;;
71856;SDS011;63344;46.980;28.882;2024-02-21T10:28:41;21.25;;;11.10;;
71856;SDS011;63344;46.980;28.882;2024-02-21T10:31:22;18.17;;;10.73;;
71856;SDS011;63344;46.980;28.882;2024-02-21T10:33:57;18.60;;;11.05;;
71856;SDS011;63344;46.980;28.882;2024-02-21T10:36:27;17.58;;;10.65;;
71856;SDS011;63344;46.980;28.882;2024-02-21T10:38:54;21.45;;;11.88;;
71856;SDS011;63344;46.980;28.882;2024-02-21T10:41:23;19.05;;;11.15;;
71856;SDS011;63344;46.980;28.882;2024-02-21T10:43:52;19.30;;;11.00;;
71856;SDS011;63344;46.980;28.882;2024-02-21T10:46:29;23.55;;;10.57;;
71856;SDS011;63344;46.980;28.882;2024-02-21T10:51:44;23.27;;;11.65;;
71856;SDS011;63344;46.980;28.882;2024-02-21T10:57:11;19.77;;;11.13;;
71856;SDS011;63344;46.980;28.882;2024-02-21T10:59:40;20.30;;;11.13;;
71856;SDS011;63344;46.980;28.882;2024-02-21T11:02:07;17.13;;;9.38;;
71856;SDS011;63344;46.980;28.882;2024-02-21T11:04:35;18.85;;;9.70;;
71856;SDS011;63344;46.980;28.882;2024-02-21T11:07:04;22.23;;;10.35;;
71856;SDS011;63344;46.980;28.882;2024-02-21T11:09:37;23.23;;;10.32;;
71856;SDS011;63344;46.980;28.882;2024-02-21T11:12:05;21.75;;;10.60;;
71856;SDS011;63344;46.980;28.882;2024-02-21T11:14:34;20.58;;;11.80;;
71856;SDS011;63344;46.980;28.882;2024-02-21T11:17:18;22.20;;;11.68;;
71856;SDS011;63344;46.980;28.882;2024-02-21T11:19:49;18.38;;;11.45;;
71856;SDS011;63344;46.980;28.882;2024-02-21T11:22:17;21.38;;;12.35;;
71856;SDS011;63344;46.980;28.882;2024-02-21T11:24:48;21.15;;;11.90;;
71856;SDS011;63344;46.980;28.882;2024-02-21T11:27:16;17.83;;;9.60;;
71856;SDS011;63344;46.980;28.882;2024-02-21T11:29:55;22.00;;;11.98;;
71856;SDS011;63344;46.980;28.882;2024-02-21T11:32:24;19.52;;;11.52;;
71856;SDS011;63344;46.980;28.882;2024-02-21T11:34:56;21.10;;;11.35;;
71856;SDS011;63344;46.980;28.882;2024-02-21T11:37:30;20.60;;;11.13;;
71856;SDS011;63344;46.980;28.882;2024-02-21T11:40:01;21.33;;;10.27;;
71856;SDS011;63344;46.980;28.882;2024-02-21T11:42:30;20.70;;;10.77;;
71856;SDS011;63344;46.980;28.882;2024-02-21T11:44:59;21.92;;;11.38;;
71856;SDS011;63344;46.980;28.882;2024-02-21T11:47:30;23.27;;;12.80;;
71856;SDS011;63344;46.980;28.882;2024-02-21T11:49:58;20.75;;;10.63;;
71856;SDS011;63344;46.980;28.882;2024-02-21T11:52:25;19.38;;;12.15;;
71856;SDS011;63344;46.980;28.882;2024-02-21T11:54:55;20.52;;;12.05;;
71856;SDS011;63344;46.980;28.882;2024-02-21T11:57:33;18.85;;;11.52;;
71856;SDS011;63344;46.980;28.882;2024-02-21T12:00:14;18.20;;;10.88;;
71856;SDS011;63344;46.980;28.882;2024-02-21T12:02:44;21.95;;;11.65;;
71856;SDS011;63344;46.980;28.882;2024-02-21T12:05:14;19.58;;;11.63;;
71856;SDS011;63344;46.980;28.882;2024-02-21T12:07:42;15.82;;;10.27;;
71856;SDS011;63344;46.980;28.882;2024-02-21T12:10:11;19.33;;;10.15;;
71856;SDS011;63344;46.980;28.882;2024-02-21T12:12:39;16.88;;;9.15;;
71856;SDS011;63344;46.980;28.882;2024-02-21T12:15:07;18.50;;;11.02;;
71856;SDS011;63344;46.980;28.882;2024-02-21T12:17:35;20.75;;;12.05;;
71856;SDS011;63344;46.980;28.882;2024-02-21T12:20:04;24.88;;;11.50;;
71856;SDS011;63344;46.980;28.882;2024-02-21T12:22:39;19.63;;;10.75;;
71856;SDS011;63344;46.980;28.882;2024-02-21T12:25:16;20.27;;;11.70;;
71856;SDS011;63344;46.980;28.882;2024-02-21T12:27:49;18.70;;;10.98;;
71856;SDS011;63344;46.980;28.882;2024-02-21T12:30:17;23.17;;;10.85;;
71856;SDS011;63344;46.980;28.882;2024-02-21T12:32:45;22.38;;;11.20;;
71856;SDS011;63344;46.980;28.882;2024-02-21T12:35:12;18.65;;;11.15;;
71856;SDS011;63344;46.980;28.882;2024-02-21T12:37:40;23.73;;;10.55;;
71856;SDS011;63344;46.980;28.882;2024-02-21T12:40:09;21.67;;;11.82;;
71856;SDS011;63344;46.980;28.882;2024-02-21T12:42:42;20.83;;;11.55;;
71856;SDS011;63344;46.980;28.882;2024-02-21T12:45:12;19.48;;;12.18;;
71856;SDS011;63344;46.980;28.882;2024-02-21T12:47:40;18.83;;;11.55;;
71856;SDS011;63344;46.980;28.882;2024-02-21T12:50:07;18.10;;;11.07;;
71856;SDS011;63344;46.980;28.882;2024-02-21T12:52:35;21.70;;;10.10;;
71856;SDS011;63344;46.980;28.882;2024-02-21T12:55:02;20.25;;;11.05;;
71856;SDS011;63344;46.980;28.882;2024-02-21T12:57:30;19.23;;;10.73;;
71856;SDS011;63344;46.980;28.882;2024-02-21T12:59:57;22.58;;;12.30;;
71856;SDS011;63344;46.980;28.882;2024-02-21T13:02:29;24.95;;;12.27;;
71856;SDS011;63344;46.980;28.882;2024-02-21T13:04:56;36.10;;;12.77;;
71856;SDS011;63344;46.980;28.882;2024-02-21T13:07:28;20.42;;;11.85;;
71856;SDS011;63344;46.980;28.882;2024-02-21T13:09:56;21.48;;;12.45;;
71856;SDS011;63344;46.980;28.882;2024-02-21T13:12:23;19.60;;;12.05;;
71856;SDS011;63344;46.980;28.882;2024-02-21T13:14:52;24.95;;;11.80;;
71856;SDS011;63344;46.980;28.882;2024-02-21T13:17:20;23.33;;;11.85;;
71856;SDS011;63344;46.980;28.882;2024-02-21T13:19:49;16.98;;;10.60;;
71856;SDS011;63344;46.980;28.882;2024-02-21T13:22:17;18.73;;;10.85;;
71856;SDS011;63344;46.980;28.882;2024-02-21T13:24:46;16.95;;;10.50;;
71856;SDS011;63344;46.980;28.882;2024-02-21T13:27:15;17.60;;;10.38;;
71856;SDS011;63344;46.980;28.882;2024-02-21T13:29:42;18.15;;;9.40;;
71856;SDS011;63344;46.980;28.882;2024-02-21T13:32:10;19.48;;;10.52;;
71856;SDS011;63344;46.980;28.882;2024-02-21T13:34:37;17.23;;;8.57;;
71856;SDS011;63344;46.980;28.882;2024-02-21T13:37:06;20.38;;;11.07;;
71856;SDS011;63344;46.980;28.882;2024-02-21T13:39:36;22.02;;;11.30;;
71856;SDS011;63344;46.980;28.882;2024-02-21T13:42:06;18.30;;;11.02;;
71856;SDS011;63344;46.980;28.882;2024-02-21T13:44:33;21.15;;;10.48;;
71856;SDS011;63344;46.980;28.882;2024-02-21T13:47:01;19.58;;;11.60;;
71856;SDS011;63344;46.980;28.882;2024-02-21T13:49:29;23.35;;;11.48;;
71856;SDS011;63344;46.980;28.882;2024-02-21T13:51:59;22.90;;;10.88;;
71856;SDS011;63344;46.980;28.882;2024-02-21T13:54:26;24.13;;;11.40;;
71856;SDS011;63344;46.980;28.882;2024-02-21T13:56:57;20.95;;;11.68;;
71856;SDS011;63344;46.980;28.882;2024-02-21T13:59:25;21.00;;;11.32;;
71856;SDS011;63344;46.980;28.882;2024-02-21T14:01:56;20.38;;;11.18;;
71856;SDS011;63344;46.980;28.882;2024-02-21T14:04:24;21.40;;;9.82;;
71856;SDS011;63344;46.980;28.882;2024-02-21T14:06:54;22.88;;;11.55;;
71856;SDS011;63344;46.980;28.882;2024-02-21T14:09:22;21.50;;;10.82;;
71856;SDS011;63344;46.980;28.882;2024-02-21T14:11:51;23.35;;;12.05;;
71856;SDS011;63344;46.980;28.882;2024-02-21T14:14:18;19.58;;;10.93;;
71856;SDS011;63344;46.980;28.882;2024-02-21T14:16:45;23.33;;;11.30;;
71856;SDS011;63344;46.980;28.882;2024-02-21T14:19:15;19.08;;;10.52;;
71856;SDS011;63344;46.980;28.882;2024-02-21T14:21:46;23.55;;;11.43;;
71856;SDS011;63344;46.980;28.882;2024-02-21T14:24:13;21.02;;;10.27;;
71856;SDS011;63344;46.980;28.882;2024-02-21T14:26:41;19.25;;;11.15;;
71856;SDS011;63344;46.980;28.882;2024-02-21T14:29:08;20.27;;;10.20;;
71856;SDS011;63344;46.980;28.882;2024-02-21T14:31:40;18.60;;;10.00;;
71856;SDS011;63344;46.980;28.882;2024-02-21T14:34:07;18.58;;;11.00;;
71856;SDS011;63344;46.980;28.882;2024-02-21T14:36:35;17.50;;;10.00;;
71856;SDS011;63344;46.980;28.882;2024-02-21T14:39:03;19.35;;;11.13;;
71856;SDS011;63344;46.980;28.882;2024-02-21T14:41:35;20.15;;;11.00;;
71856;SDS011;63344;46.980;28.882;2024-02-21T14:44:02;16.85;;;9.52;;
71856;SDS011;63344;46.980;28.882;2024-02-21T14:46:31;17.05;;;9.07;;
71856;SDS011;63344;46.980;28.882;2024-02-21T14:49:01;17.83;;;11.45;;
71856;SDS011;63344;46.980;28.882;2024-02-21T14:51:30;19.30;;;10.82;;
71856;SDS011;63344;46.980;28.882;2024-02-21T14:53:57;17.92;;;9.35;;
71856;SDS011;63344;46.980;28.882;2024-02-21T14:56:47;17.15;;;9.07;;
71856;SDS011;63344;46.980;28.882;2024-02-21T14:59:14;15.98;;;9.18;;
71856;SDS011;63344;46.980;28.882;2024-02-21T15:01:55;20.77;;;10.30;;
71856;SDS011;63344;46.980;28.882;2024-02-21T15:04:22;21.67;;;10.75;;
71856;SDS011;63344;46.980;28.882;2024-02-21T15:06:50;19.77;;;9.80;;
71856;SDS011;63344;46.980;28.882;2024-02-21T15:09:18;26.77;;;12.07;;
71856;SDS011;63344;46.980;28.882;2024-02-21T15:11:46;21.73;;;10.98;;
71856;SDS011;63344;46.980;28.882;2024-02-21T15:14:13;18.02;;;11.45;;
71856;SDS011;63344;46.980;28.882;2024-02-21T15:16:41;21.58;;;11.25;;
71856;SDS011;63344;46.980;28.882;2024-02-21T15:19:08;25.25;;;9.60;;
71856;SDS011;63344;46.980;28.882;2024-02-21T15:21:35;21.77;;;10.93;;
71856;SDS011;63344;46.980;28.882;2024-02-21T15:24:02;27.27;;;12.30;;
71856;SDS011;63344;46.980;28.882;2024-02-21T15:26:30;28.55;;;13.50;;
71856;SDS011;63344;46.980;28.882;2024-02-21T15:28:58;29.35;;;14.68;;
71856;SDS011;63344;46.980;28.882;2024-02-21T15:31:27;27.55;;;13.50;;
71856;SDS011;63344;46.980;28.882;2024-02-21T15:33:56;29.00;;;14.35;;
71856;SDS011;63344;46.980;28.882;2024-02-21T15:36:24;25.90;;;14.73;;
71856;SDS011;63344;46.980;28.882;2024-02-21T15:38:51;37.45;;;13.13;;
71856;SDS011;63344;46.980;28.882;2024-02-21T15:41:19;30.17;;;15.95;;
71856;SDS011;63344;46.980;28.882;2024-02-21T15:43:48;33.50;;;16.08;;
71856;SDS011;63344;46.980;28.882;2024-02-21T15:46:16;36.05;;;17.67;;
71856;SDS011;63344;46.980;28.882;2024-02-21T15:48:43;37.83;;;16.52;;
71856;SDS011;63344;46.980;28.882;2024-02-21T15:51:10;31.85;;;16.30;;
71856;SDS011;63344;46.980;28.882;2024-02-21T15:53:41;35.00;;;16.70;;
71856;SDS011;63344;46.980;28.882;2024-02-21T15:56:13;39.55;;;18.52;;
71856;SDS011;63344;46.980;28.882;2024-02-21T15:58:41;37.35;;;19.05;;
71856;SDS011;63344;46.980;28.882;2024-02-21T16:01:08;36.50;;;15.95;;
71856;SDS011;63344;46.980;28.882;2024-02-21T16:03:38;36.88;;;19.40;;
71856;SDS011;63344;46.980;28.882;2024-02-21T16:06:09;36.38;;;15.82;;
71856;SDS011;63344;46.980;28.882;2024-02-21T16:08:36;38.90;;;13.93;;
71856;SDS011;63344;46.980;28.882;2024-02-21T16:11:11;37.92;;;17.00;;
71856;SDS011;63344;46.980;28.882;2024-02-21T16:13:42;34.53;;;17.52;;
71856;SDS011;63344;46.980;28.882;2024-02-21T16:16:10;36.58;;;17.88;;
71856;SDS011;63344;46.980;28.882;2024-02-21T16:18:37;40.08;;;17.08;;
71856;SDS011;63344;46.980;28.882;2024-02-21T16:21:05;44.05;;;19.60;;
71856;SDS011;63344;46.980;28.882;2024-02-21T16:23:32;36.88;;;17.83;;
71856;SDS011;63344;46.980;28.882;2024-02-21T16:25:59;35.05;;;16.30;;
71856;SDS011;63344;46.980;28.882;2024-02-21T16:28:28;36.60;;;18.90;;
71856;SDS011;63344;46.980;28.882;2024-02-21T16:31:05;40.95;;;18.83;;
71856;SDS011;63344;46.980;28.882;2024-02-21T16:33:42;43.05;;;20.58;;
71856;SDS011;63344;46.980;28.882;2024-02-21T16:36:22;47.20;;;19.95;;
71856;SDS011;63344;46.980;28.882;2024-02-21T16:38:52;37.88;;;17.08;;
71856;SDS011;63344;46.980;28.882;2024-02-21T16:41:20;35.72;;;16.33;;
71856;SDS011;63344;46.980;28.882;2024-02-21T16:43:48;42.03;;;21.13;;
71856;SDS011;63344;46.980;28.882;2024-02-21T16:46:16;39.10;;;17.88;;
71856;SDS011;63344;46.980;28.882;2024-02-21T16:48:43;61.78;;;26.58;;
71856;SDS011;63344;46.980;28.882;2024-02-21T16:51:11;64.75;;;28.42;;
71856;SDS011;63344;46.980;28.882;2024-02-21T16:53:39;72.30;;;33.05;;
71856;SDS011;63344;46.980;28.882;2024-02-21T16:56:06;73.53;;;33.95;;
71856;SDS011;63344;46.980;28.882;2024-02-21T16:58:35;66.93;;;28.48;;
71856;SDS011;63344;46.980;28.882;2024-02-21T17:01:06;58.30;;;26.23;;
71856;SDS011;63344;46.980;28.882;2024-02-21T17:03:39;59.30;;;26.40;;
71856;SDS011;63344;46.980;28.882;2024-02-21T17:08:44;69.10;;;30.25;;
71856;SDS011;63344;46.980;28.882;2024-02-21T17:11:13;56.10;;;26.60;;
71856;SDS011;63344;46.980;28.882;2024-02-21T17:13:40;41.20;;;20.67;;
71856;SDS011;63344;46.980;28.882;2024-02-21T17:16:10;53.38;;;23.45;;
71856;SDS011;63344;46.980;28.882;2024-02-21T17:18:38;46.90;;;21.48;;
71856;SDS011;63344;46.980;28.882;2024-02-21T17:21:07;45.88;;;22.58;;
71856;SDS011;63344;46.980;28.882;2024-02-21T17:23:34;47.00;;;24.58;;
71856;SDS011;63344;46.980;28.882;2024-02-21T17:26:02;46.97;;;21.75;;
71856;SDS011;63344;46.980;28.882;2024-02-21T17:28:30;43.45;;;21.90;;
71856;SDS011;63344;46.980;28.882;2024-02-21T17:30:59;47.05;;;22.35;;
71856;SDS011;63344;46.980;28.882;2024-02-21T17:33:26;47.83;;;22.20;;
71856;SDS011;63344;46.980;28.882;2024-02-21T17:35:53;50.63;;;22.23;;
71856;SDS011;63344;46.980;28.882;2024-02-21T17:38:22;43.67;;;19.35;;
71856;SDS011;63344;46.980;28.882;2024-02-21T17:40:50;28.33;;;13.73;;
71856;SDS011;63344;46.980;28.882;2024-02-21T17:43:18;38.28;;;18.17;;
71856;SDS011;63344;46.980;28.882;2024-02-21T17:45:48;36.28;;;18.77;;
71856;SDS011;63344;46.980;28.882;2024-02-21T17:50:45;35.67;;;15.88;;
71856;SDS011;63344;46.980;28.882;2024-02-21T17:53:13;31.45;;;16.02;;
71856;SDS011;63344;46.980;28.882;2024-02-21T17:55:40;26.42;;;14.77;;
71856;SDS011;63344;46.980;28.882;2024-02-21T17:58:11;27.67;;;16.08;;
71856;SDS011;63344;46.980;28.882;2024-02-21T18:00:39;29.77;;;15.00;;
71856;SDS011;63344;46.980;28.882;2024-02-21T18:03:11;30.55;;;14.85;;
71856;SDS011;63344;46.980;28.882;2024-02-21T18:05:39;31.17;;;14.40;;
71856;SDS011;63344;46.980;28.882;2024-02-21T18:08:10;29.13;;;14.95;;
71856;SDS011;63344;46.980;28.882;2024-02-21T18:10:37;39.47;;;17.55;;
71856;SDS011;63344;46.980;28.882;2024-02-21T18:13:05;29.15;;;14.43;;
71856;SDS011;63344;46.980;28.882;2024-02-21T18:15:33;32.83;;;14.25;;
71856;SDS011;63344;46.980;28.882;2024-02-21T18:18:01;28.67;;;14.00;;
71856;SDS011;63344;46.980;28.882;2024-02-21T18:20:31;27.77;;;12.35;;
71856;SDS011;63344;46.980;28.882;2024-02-21T18:22:59;29.27;;;13.98;;
71856;SDS011;63344;46.980;28.882;2024-02-21T18:25:26;31.98;;;16.17;;
71856;SDS011;63344;46.980;28.882;2024-02-21T18:27:55;30.35;;;14.60;;
71856;SDS011;63344;46.980;28.882;2024-02-21T18:30:22;38.13;;;16.13;;
71856;SDS011;63344;46.980;28.882;2024-02-21T18:32:50;33.83;;;13.50;;
71856;SDS011;63344;46.980;28.882;2024-02-21T18:35:20;27.60;;;13.65;;
71856;SDS011;63344;46.980;28.882;2024-02-21T18:37:47;27.13;;;13.60;;
71856;SDS011;63344;46.980;28.882;2024-02-21T18:40:15;29.35;;;16.38;;
71856;SDS011;63344;46.980;28.882;2024-02-21T18:42:46;26.33;;;13.65;;